N216TB TJPS-TIST
Flight info
| Callsign | N216TB |
|---|---|
| Flight time | 0h 25m |
| Altitude | 7000 |
| Route | DCT CLAYO DCT SANLO DCT MILOH DCT KUTHO DCT JAQYY DCT |
| Aircraft | PC12/L-L/C |
Departure
| Time | 2026-04-26 00:19 |
|---|---|
| Airport | Mercedita International Airport (TJPS) |
Arrival
| Time | 2026-04-26 00:44 |
|---|---|
| Airport | Cyril E. King Airport (TIST) |
| Time | Latitude | Longitude | Altitude | Speed | Heading |
|---|---|---|---|---|---|
| 2026-04-26 00:03 | 18.01009 | -66.56301 | 33 ft | 0 kts | 319° |
| 2026-04-26 00:13 | 18.01007 | -66.56299 | 33 ft | 4 kts | 319° |
| 2026-04-26 00:13 | 18.00993 | -66.56280 | 33 ft | 4 kts | 250° |
| 2026-04-26 00:13 | 18.00978 | -66.56355 | 33 ft | 6 kts | 287° |
| 2026-04-26 00:13 | 18.01000 | -66.56442 | 34 ft | 14 kts | 285° |
| 2026-04-26 00:14 | 18.01018 | -66.56509 | 34 ft | 9 kts | 285° |
| 2026-04-26 00:14 | 18.01038 | -66.56580 | 34 ft | 8 kts | 287° |
| 2026-04-26 00:14 | 18.01061 | -66.56660 | 34 ft | 11 kts | 288° |
| 2026-04-26 00:14 | 18.01084 | -66.56732 | 34 ft | 13 kts | 288° |
| 2026-04-26 00:15 | 18.01103 | -66.56794 | 34 ft | 11 kts | 289° |
| 2026-04-26 00:15 | 18.01083 | -66.56837 | 34 ft | 0 kts | 197° |
| 2026-04-26 00:16 | 18.01051 | -66.56848 | 34 ft | 10 kts | 199° |
| 2026-04-26 00:16 | 18.01006 | -66.56841 | 35 ft | 6 kts | 137° |
| 2026-04-26 00:17 | 18.00994 | -66.56827 | 35 ft | 2 kts | 122° |
| 2026-04-26 00:17 | 18.00991 | -66.56820 | 35 ft | 0 kts | 109° |
| 2026-04-26 00:18 | 18.00932 | -66.56621 | 36 ft | 63 kts | 108° |
| 2026-04-26 00:18 | 18.00722 | -66.56008 | 53 ft | 109 kts | 113° |
| 2026-04-26 00:18 | 18.00419 | -66.55187 | 211 ft | 142 kts | 112° |
| 2026-04-26 00:18 | 17.99991 | -66.54138 | 603 ft | 166 kts | 113° |
| 2026-04-26 00:19 | 17.99531 | -66.52973 | 1091 ft | 178 kts | 112° |
| 2026-04-26 00:19 | 17.99056 | -66.51748 | 1600 ft | 184 kts | 112° |
| 2026-04-26 00:19 | 17.98597 | -66.50503 | 2101 ft | 187 kts | 105° |
| 2026-04-26 00:19 | 17.98709 | -66.49158 | 2597 ft | 191 kts | 64° |
| 2026-04-26 00:20 | 17.99598 | -66.48134 | 3107 ft | 191 kts | 38° |
| 2026-04-26 00:20 | 18.00655 | -66.47288 | 3617 ft | 192 kts | 36° |
| 2026-04-26 00:20 | 18.01722 | -66.46440 | 4130 ft | 192 kts | 37° |
| 2026-04-26 00:20 | 18.02795 | -66.45591 | 4647 ft | 196 kts | 36° |
| 2026-04-26 00:21 | 18.03900 | -66.44718 | 5158 ft | 201 kts | 36° |
| 2026-04-26 00:21 | 18.05027 | -66.43822 | 5671 ft | 204 kts | 37° |
| 2026-04-26 00:21 | 18.06001 | -66.42735 | 6187 ft | 206 kts | 54° |
| 2026-04-26 00:21 | 18.06621 | -66.41395 | 6677 ft | 209 kts | 71° |
| 2026-04-26 00:22 | 18.07022 | -66.39894 | 6972 ft | 220 kts | 75° |
| 2026-04-26 00:22 | 18.07434 | -66.38284 | 7011 ft | 235 kts | 74° |
| 2026-04-26 00:22 | 18.07903 | -66.36618 | 7019 ft | 241 kts | 72° |
| 2026-04-26 00:22 | 18.08392 | -66.34924 | 7020 ft | 243 kts | 72° |
| 2026-04-26 00:23 | 18.08877 | -66.33217 | 7021 ft | 244 kts | 73° |
| 2026-04-26 00:23 | 18.09359 | -66.31509 | 7023 ft | 244 kts | 73° |
| 2026-04-26 00:23 | 18.09843 | -66.29796 | 7023 ft | 245 kts | 73° |
| 2026-04-26 00:23 | 18.10328 | -66.28082 | 7021 ft | 244 kts | 73° |
| 2026-04-26 00:24 | 18.10807 | -66.26389 | 7026 ft | 247 kts | 73° |
| 2026-04-26 00:24 | 18.11296 | -66.24660 | 7025 ft | 247 kts | 73° |
| 2026-04-26 00:24 | 18.11787 | -66.22923 | 7027 ft | 248 kts | 73° |
| 2026-04-26 00:24 | 18.12277 | -66.21190 | 7028 ft | 248 kts | 73° |
| 2026-04-26 00:25 | 18.12767 | -66.19454 | 7029 ft | 248 kts | 73° |
| 2026-04-26 00:25 | 18.13258 | -66.17715 | 7025 ft | 248 kts | 73° |
| 2026-04-26 00:25 | 18.13750 | -66.15974 | 7028 ft | 248 kts | 73° |
| 2026-04-26 00:25 | 18.14239 | -66.14236 | 7027 ft | 248 kts | 73° |
| 2026-04-26 00:26 | 18.14731 | -66.12492 | 7023 ft | 248 kts | 73° |
| 2026-04-26 00:26 | 18.15221 | -66.10754 | 7023 ft | 248 kts | 73° |
| 2026-04-26 00:26 | 18.15705 | -66.09036 | 7023 ft | 248 kts | 73° |
| 2026-04-26 00:26 | 18.16196 | -66.07293 | 7022 ft | 248 kts | 73° |
| 2026-04-26 00:27 | 18.16686 | -66.05554 | 7017 ft | 248 kts | 73° |
| 2026-04-26 00:27 | 18.17177 | -66.03813 | 7019 ft | 249 kts | 73° |
| 2026-04-26 00:27 | 18.17666 | -66.02068 | 7018 ft | 249 kts | 73° |
| 2026-04-26 00:27 | 18.18157 | -66.00324 | 7018 ft | 249 kts | 73° |
| 2026-04-26 00:28 | 18.18648 | -65.98579 | 7012 ft | 249 kts | 73° |
| 2026-04-26 00:28 | 18.19137 | -65.96838 | 7009 ft | 248 kts | 73° |
| 2026-04-26 00:28 | 18.19620 | -65.95119 | 7012 ft | 248 kts | 73° |
| 2026-04-26 00:28 | 18.20108 | -65.93380 | 7011 ft | 249 kts | 73° |
| 2026-04-26 00:29 | 18.20604 | -65.91634 | 7012 ft | 249 kts | 72° |
| 2026-04-26 00:29 | 18.21105 | -65.89891 | 7012 ft | 249 kts | 72° |
| 2026-04-26 00:29 | 18.21602 | -65.88153 | 7009 ft | 249 kts | 73° |
| 2026-04-26 00:29 | 18.22099 | -65.86409 | 7006 ft | 249 kts | 73° |
| 2026-04-26 00:30 | 18.22594 | -65.84669 | 7009 ft | 249 kts | 73° |
| 2026-04-26 00:30 | 18.23091 | -65.82927 | 7008 ft | 249 kts | 73° |
| 2026-04-26 00:30 | 18.23589 | -65.81181 | 7008 ft | 249 kts | 73° |
| 2026-04-26 00:30 | 18.24086 | -65.79436 | 7001 ft | 249 kts | 73° |
| 2026-04-26 00:31 | 18.24575 | -65.77719 | 7008 ft | 249 kts | 73° |
| 2026-04-26 00:31 | 18.25071 | -65.75975 | 7005 ft | 249 kts | 73° |
| 2026-04-26 00:31 | 18.25567 | -65.74233 | 7002 ft | 249 kts | 73° |
| 2026-04-26 00:31 | 18.26061 | -65.72495 | 7003 ft | 249 kts | 73° |
| 2026-04-26 00:32 | 18.26558 | -65.70744 | 7004 ft | 250 kts | 73° |
| 2026-04-26 00:32 | 18.27057 | -65.68990 | 7003 ft | 250 kts | 73° |
| 2026-04-26 00:32 | 18.28055 | -65.65477 | 7007 ft | 250 kts | 73° |
| 2026-04-26 00:33 | 18.28547 | -65.63745 | 7003 ft | 250 kts | 73° |
| 2026-04-26 00:33 | 18.29044 | -65.61992 | 7005 ft | 250 kts | 73° |
| 2026-04-26 00:33 | 18.29542 | -65.60236 | 7008 ft | 250 kts | 73° |
| 2026-04-26 00:33 | 18.30039 | -65.58483 | 7004 ft | 250 kts | 73° |
| 2026-04-26 00:34 | 18.30536 | -65.56729 | 7002 ft | 250 kts | 73° |
| 2026-04-26 00:34 | 18.31020 | -65.54972 | 7001 ft | 250 kts | 76° |
| 2026-04-26 00:34 | 18.31184 | -65.53159 | 6997 ft | 249 kts | 88° |
| 2026-04-26 00:34 | 18.31261 | -65.51335 | 6995 ft | 249 kts | 87° |
| 2026-04-26 00:35 | 18.31353 | -65.49535 | 6995 ft | 250 kts | 87° |
| 2026-04-26 00:35 | 18.31444 | -65.47714 | 6996 ft | 250 kts | 87° |
| 2026-04-26 00:35 | 18.31530 | -65.45886 | 7001 ft | 250 kts | 87° |
| 2026-04-26 00:35 | 18.31616 | -65.44058 | 6998 ft | 250 kts | 87° |
| 2026-04-26 00:36 | 18.31703 | -65.42230 | 6999 ft | 250 kts | 87° |
| 2026-04-26 00:36 | 18.31789 | -65.40401 | 6997 ft | 250 kts | 87° |
| 2026-04-26 00:36 | 18.31876 | -65.38572 | 6996 ft | 250 kts | 87° |
| 2026-04-26 00:36 | 18.31963 | -65.36740 | 6925 ft | 253 kts | 87° |
| 2026-04-26 00:37 | 18.32051 | -65.34864 | 6600 ft | 259 kts | 88° |
| 2026-04-26 00:37 | 18.32138 | -65.33015 | 6193 ft | 244 kts | 88° |
| 2026-04-26 00:37 | 18.32221 | -65.31260 | 5748 ft | 238 kts | 88° |
| 2026-04-26 00:37 | 18.32301 | -65.29523 | 5303 ft | 237 kts | 88° |
| 2026-04-26 00:38 | 18.32382 | -65.27801 | 4865 ft | 235 kts | 88° |
| 2026-04-26 00:38 | 18.32462 | -65.26091 | 4425 ft | 232 kts | 88° |
| 2026-04-26 00:38 | 18.32541 | -65.24401 | 3981 ft | 230 kts | 88° |
| 2026-04-26 00:38 | 18.32584 | -65.22726 | 3544 ft | 227 kts | 92° |
| 2026-04-26 00:39 | 18.32550 | -65.21069 | 3109 ft | 225 kts | 91° |
| 2026-04-26 00:39 | 18.32616 | -65.19442 | 2822 ft | 218 kts | 89° |
| 2026-04-26 00:39 | 18.32694 | -65.17911 | 2799 ft | 205 kts | 89° |
| 2026-04-26 00:39 | 18.32769 | -65.16437 | 2791 ft | 200 kts | 89° |
| 2026-04-26 00:40 | 18.32842 | -65.14984 | 2798 ft | 198 kts | 89° |
| 2026-04-26 00:40 | 18.32915 | -65.13533 | 2742 ft | 200 kts | 89° |
| 2026-04-26 00:40 | 18.32989 | -65.12052 | 2503 ft | 204 kts | 89° |
| 2026-04-26 00:40 | 18.33063 | -65.10566 | 2241 ft | 197 kts | 90° |
| 2026-04-26 00:41 | 18.33133 | -65.09215 | 1990 ft | 179 kts | 89° |
| 2026-04-26 00:41 | 18.33197 | -65.07967 | 1777 ft | 157 kts | 89° |
| 2026-04-26 00:41 | 18.33253 | -65.06868 | 1583 ft | 150 kts | 89° |
| 2026-04-26 00:41 | 18.33305 | -65.05769 | 1379 ft | 150 kts | 90° |
| 2026-04-26 00:42 | 18.33360 | -65.04690 | 1192 ft | 150 kts | 89° |
| 2026-04-26 00:42 | 18.33413 | -65.03602 | 1006 ft | 148 kts | 91° |
| 2026-04-26 00:42 | 18.33463 | -65.02519 | 813 ft | 144 kts | 90° |
| 2026-04-26 00:42 | 18.33517 | -65.01477 | 638 ft | 143 kts | 90° |
| 2026-04-26 00:43 | 18.33567 | -65.00439 | 460 ft | 141 kts | 90° |
| 2026-04-26 00:43 | 18.33617 | -64.99404 | 270 ft | 140 kts | 89° |
| 2026-04-26 00:43 | 18.33681 | -64.98460 | 81 ft | 111 kts | 91° |
| 2026-04-26 00:43 | 18.33713 | -64.97766 | 25 ft | 80 kts | 89° |
| 2026-04-26 00:44 | 18.33729 | -64.97303 | 22 ft | 40 kts | 88° |
| 2026-04-26 00:44 | 18.33739 | -64.97099 | 20 ft | 33 kts | 86° |
| 2026-04-26 00:44 | 18.33749 | -64.96872 | 15 ft | 23 kts | 85° |
| 2026-04-26 00:44 | 18.33756 | -64.96742 | 13 ft | 13 kts | 87° |
| 2026-04-26 00:45 | 18.33787 | -64.96692 | 13 ft | 6 kts | 17° |
| 2026-04-26 00:45 | 18.33833 | -64.96689 | 14 ft | 0 kts | 358° |
| 2026-04-26 00:45 | 18.33843 | -64.96689 | 14 ft | 7 kts | 357° |
| 2026-04-26 00:45 | 18.33898 | -64.96695 | 14 ft | 5 kts | 338° |
| 2026-04-26 00:46 | 18.33911 | -64.96720 | 15 ft | 0 kts | 246° |
| 2026-04-26 00:46 | 18.33891 | -64.96728 | 15 ft | 0 kts | 183° |